sensor_id;sensor_type;location;lat;lon;timestamp;pressure;altitude;pressure_sealevel;temperature;humidity
78407;BME280;67692;51.074;-1.790;2023-11-21T00:01:15;101037.91;;;10.08;100.00
78407;BME280;67692;51.074;-1.790;2023-11-21T00:03:43;101042.34;;;10.06;100.00
78407;BME280;67692;51.074;-1.790;2023-11-21T00:06:10;101049.28;;;10.05;100.00
78407;BME280;67692;51.074;-1.790;2023-11-21T00:08:37;101047.63;;;10.04;100.00
78407;BME280;67692;51.074;-1.790;2023-11-21T00:11:04;101056.22;;;10.05;100.00
78407;BME280;67692;51.074;-1.790;2023-11-21T00:13:31;101052.69;;;10.06;100.00
78407;BME280;67692;51.074;-1.790;2023-11-21T00:15:58;101053.81;;;10.02;100.00
78407;BME280;67692;51.074;-1.790;2023-11-21T00:18:25;101049.38;;;10.04;100.00
78407;BME280;67692;51.074;-1.790;2023-11-21T00:20:52;101057.44;;;9.99;100.00
78407;BME280;67692;51.074;-1.790;2023-11-21T00:23:19;101053.81;;;10.02;100.00
78407;BME280;67692;51.074;-1.790;2023-11-21T00:25:45;101053.72;;;10.03;100.00
78407;BME280;67692;51.074;-1.790;2023-11-21T00:28:12;101059.53;;;10.07;100.00
78407;BME280;67692;51.074;-1.790;2023-11-21T00:30:39;101050.84;;;10.08;100.00
78407;BME280;67692;51.074;-1.790;2023-11-21T00:33:06;101056.03;;;10.08;100.00
78407;BME280;67692;51.074;-1.790;2023-11-21T00:35:32;101053.63;;;10.05;100.00
78407;BME280;67692;51.074;-1.790;2023-11-21T00:38:00;101053.53;;;10.06;100.00
78407;BME280;67692;51.074;-1.790;2023-11-21T00:40:26;101051.78;;;10.07;100.00
78407;BME280;67692;51.074;-1.790;2023-11-21T00:42:53;101059.00;;;10.02;100.00
78407;BME280;67692;51.074;-1.790;2023-11-21T00:45:21;101067.50;;;10.04;100.00
78407;BME280;67692;51.074;-1.790;2023-11-21T00:47:47;101072.66;;;10.04;100.00
78407;BME280;67692;51.074;-1.790;2023-11-21T00:50:14;101074.03;;;9.95;100.00
78407;BME280;67692;51.074;-1.790;2023-11-21T00:52:41;101082.72;;;9.94;100.00
78407;BME280;67692;51.074;-1.790;2023-11-21T00:55:09;101070.06;;;9.90;100.00
78407;BME280;67692;51.074;-1.790;2023-11-21T00:57:37;101073.59;;;9.89;100.00
78407;BME280;67692;51.074;-1.790;2023-11-21T01:00:04;101085.69;;;9.88;100.00
78407;BME280;67692;51.074;-1.790;2023-11-21T01:02:34;101078.94;;;9.86;100.00
78407;BME280;67692;51.074;-1.790;2023-11-21T01:05:02;101088.09;;;9.91;100.00
78407;BME280;67692;51.074;-1.790;2023-11-21T01:07:29;101092.97;;;9.96;100.00
78407;BME280;67692;51.074;-1.790;2023-11-21T01:09:55;101083.22;;;10.01;100.00
78407;BME280;67692;51.074;-1.790;2023-11-21T01:12:23;101088.72;;;9.95;100.00
78407;BME280;67692;51.074;-1.790;2023-11-21T01:14:50;101096.78;;;9.90;100.00
78407;BME280;67692;51.074;-1.790;2023-11-21T01:17:17;101092.97;;;9.96;100.00
78407;BME280;67692;51.074;-1.790;2023-11-21T01:19:43;101098.88;;;9.98;100.00
78407;BME280;67692;51.074;-1.790;2023-11-21T01:22:10;101104.25;;;9.95;100.00
78407;BME280;67692;51.074;-1.790;2023-11-21T01:24:37;101102.41;;;9.97;100.00
78407;BME280;67692;51.074;-1.790;2023-11-21T01:27:04;101114.06;;;9.90;100.00
78407;BME280;67692;51.074;-1.790;2023-11-21T01:29:32;101123.66;;;9.88;100.00
78407;BME280;67692;51.074;-1.790;2023-11-21T01:31:59;101118.50;;;9.88;100.00
78407;BME280;67692;51.074;-1.790;2023-11-21T01:34:26;101119.97;;;9.92;100.00
78407;BME280;67692;51.074;-1.790;2023-11-21T01:36:53;101119.03;;;9.93;100.00
78407;BME280;67692;51.074;-1.790;2023-11-21T01:39:20;101122.75;;;9.89;100.00
78407;BME280;67692;51.074;-1.790;2023-11-21T01:41:49;101121.06;;;9.88;100.00
78407;BME280;67692;51.074;-1.790;2023-11-21T01:44:15;101129.47;;;9.91;100.00
78407;BME280;67692;51.074;-1.790;2023-11-21T01:46:43;101137.34;;;9.90;100.00
78407;BME280;67692;51.074;-1.790;2023-11-21T01:49:10;101146.66;;;9.92;100.00
78407;BME280;67692;51.074;-1.790;2023-11-21T01:51:38;101143.97;;;9.94;100.00
78407;BME280;67692;51.074;-1.790;2023-11-21T01:54:05;101148.22;;;9.95;100.00
78407;BME280;67692;51.074;-1.790;2023-11-21T01:56:32;101160.72;;;9.88;100.00
78407;BME280;67692;51.074;-1.790;2023-11-21T01:58:59;101157.84;;;9.93;100.00
78407;BME280;67692;51.074;-1.790;2023-11-21T02:01:26;101166.16;;;9.98;100.00
78407;BME280;67692;51.074;-1.790;2023-11-21T02:03:54;101163.00;;;9.93;100.00
78407;BME280;67692;51.074;-1.790;2023-11-21T02:06:21;101166.72;;;9.89;100.00
78407;BME280;67692;51.074;-1.790;2023-11-21T02:08:47;101170.56;;;9.81;100.00
78407;BME280;67692;51.074;-1.790;2023-11-21T02:11:15;101174.38;;;9.90;100.00
78407;BME280;67692;51.074;-1.790;2023-11-21T02:13:42;101176.13;;;9.90;100.00
78407;BME280;67692;51.074;-1.790;2023-11-21T02:16:11;101177.88;;;9.89;100.00
78407;BME280;67692;51.074;-1.790;2023-11-21T02:18:39;101184.81;;;9.89;100.00
78407;BME280;67692;51.074;-1.790;2023-11-21T02:21:07;101192.00;;;9.83;100.00
78407;BME280;67692;51.074;-1.790;2023-11-21T02:23:36;101189.41;;;9.83;100.00
78407;BME280;67692;51.074;-1.790;2023-11-21T02:26:07;101201.44;;;9.84;100.00
78407;BME280;67692;51.074;-1.790;2023-11-21T02:28:35;101210.28;;;9.80;100.00
78407;BME280;67692;51.074;-1.790;2023-11-21T02:31:01;101212.22;;;9.77;100.00
78407;BME280;67692;51.074;-1.790;2023-11-21T02:33:30;101220.63;;;9.80;100.00
78407;BME280;67692;51.074;-1.790;2023-11-21T02:35:59;101222.47;;;9.78;100.00
78407;BME280;67692;51.074;-1.790;2023-11-21T02:38:25;101220.72;;;9.79;100.00
78407;BME280;67692;51.074;-1.790;2023-11-21T02:40:53;101224.03;;;9.81;100.00
78407;BME280;67692;51.074;-1.790;2023-11-21T02:43:20;101229.81;;;9.86;100.00
78407;BME280;67692;51.074;-1.790;2023-11-21T02:45:46;101235.72;;;9.88;100.00
78407;BME280;67692;51.074;-1.790;2023-11-21T02:48:13;101241.63;;;9.90;100.00
78407;BME280;67692;51.074;-1.790;2023-11-21T02:50:39;101238.94;;;9.92;100.00
78407;BME280;67692;51.074;-1.790;2023-11-21T02:53:06;101238.03;;;9.93;100.00
78407;BME280;67692;51.074;-1.790;2023-11-21T02:55:33;101239.13;;;9.89;100.00
78407;BME280;67692;51.074;-1.790;2023-11-21T02:58:02;101233.22;;;9.87;100.00
78407;BME280;67692;51.074;-1.790;2023-11-21T03:00:29;101235.91;;;9.85;100.00
78407;BME280;67692;51.074;-1.790;2023-11-21T03:02:56;101229.91;;;9.84;100.00
78407;BME280;67692;51.074;-1.790;2023-11-21T03:05:23;101233.69;;;9.93;100.00
78407;BME280;67692;51.074;-1.790;2023-11-21T03:07:49;101233.59;;;9.95;100.00
78407;BME280;67692;51.074;-1.790;2023-11-21T03:10:16;101232.59;;;9.97;100.00
78407;BME280;67692;51.074;-1.790;2023-11-21T03:12:42;101226.56;;;9.97;100.00
78407;BME280;67692;51.074;-1.790;2023-11-21T03:15:11;101228.09;;;10.01;100.00
78407;BME280;67692;51.074;-1.790;2023-11-21T03:17:38;101229.94;;;9.99;100.00
78407;BME280;67692;51.074;-1.790;2023-11-21T03:20:05;101233.41;;;9.98;100.00
78407;BME280;67692;51.074;-1.790;2023-11-21T03:22:36;101239.38;;;10.00;100.00
78407;BME280;67692;51.074;-1.790;2023-11-21T03:25:02;101236.00;;;9.98;100.00
78407;BME280;67692;51.074;-1.790;2023-11-21T03:27:30;101247.97;;;10.00;100.00
78407;BME280;67692;51.074;-1.790;2023-11-21T03:29:56;101263.38;;;10.02;100.00
78407;BME280;67692;51.074;-1.790;2023-11-21T03:32:24;101261.53;;;10.04;100.00
78407;BME280;67692;51.074;-1.790;2023-11-21T03:34:54;101264.22;;;10.02;100.00
78407;BME280;67692;51.074;-1.790;2023-11-21T03:37:22;101275.59;;;10.00;100.00
78407;BME280;67692;51.074;-1.790;2023-11-21T03:39:48;101271.81;;;10.05;100.00
78407;BME280;67692;51.074;-1.790;2023-11-21T03:42:15;101277.81;;;10.06;100.00
78407;BME280;67692;51.074;-1.790;2023-11-21T03:44:42;101276.31;;;10.02;100.00
78407;BME280;67692;51.074;-1.790;2023-11-21T03:47:08;101279.66;;;10.04;100.00
78407;BME280;67692;51.074;-1.790;2023-11-21T03:49:37;101286.59;;;10.03;100.00
78407;BME280;67692;51.074;-1.790;2023-11-21T03:52:04;101282.78;;;10.09;100.00
78407;BME280;67692;51.074;-1.790;2023-11-21T03:54:31;101289.00;;;10.06;100.00
78407;BME280;67692;51.074;-1.790;2023-11-21T03:56:57;101288.34;;;10.03;100.00
78407;BME280;67692;51.074;-1.790;2023-11-21T03:59:24;101299.59;;;10.02;100.00
78407;BME280;67692;51.074;-1.790;2023-11-21T04:01:50;101296.75;;;10.06;100.00
78407;BME280;67692;51.074;-1.790;2023-11-21T04:04:17;101299.91;;;10.11;100.00
78407;BME280;67692;51.074;-1.790;2023-11-21T04:06:46;101308.84;;;10.06;100.00
78407;BME280;67692;51.074;-1.790;2023-11-21T04:09:12;101313.00;;;10.08;100.00
78407;BME280;67692;51.074;-1.790;2023-11-21T04:11:39;101316.53;;;10.07;100.00
78407;BME280;67692;51.074;-1.790;2023-11-21T04:14:06;101309.50;;;10.09;100.00
78407;BME280;67692;51.074;-1.790;2023-11-21T04:16:32;101312.19;;;10.08;100.00
78407;BME280;67692;51.074;-1.790;2023-11-21T04:18:59;101304.34;;;10.09;100.00
78407;BME280;67692;51.074;-1.790;2023-11-21T04:21:25;101319.75;;;10.11;100.00
78407;BME280;67692;51.074;-1.790;2023-11-21T04:23:54;101320.59;;;10.11;100.00
78407;BME280;67692;51.074;-1.790;2023-11-21T04:26:20;101323.19;;;10.11;100.00
78407;BME280;67692;51.074;-1.790;2023-11-21T04:28:47;101324.78;;;10.14;100.00
78407;BME280;67692;51.074;-1.790;2023-11-21T04:31:13;101329.56;;;10.06;100.00
78407;BME280;67692;51.074;-1.790;2023-11-21T04:33:40;101323.38;;;10.08;100.00
78407;BME280;67692;51.074;-1.790;2023-11-21T04:36:07;101329.38;;;10.09;100.00
78407;BME280;67692;51.074;-1.790;2023-11-21T04:38:34;101339.91;;;10.06;100.00
78407;BME280;67692;51.074;-1.790;2023-11-21T04:41:02;101339.63;;;10.10;100.00
78407;BME280;67692;51.074;-1.790;2023-11-21T04:43:28;101340.66;;;10.08;100.00
78407;BME280;67692;51.074;-1.790;2023-11-21T04:45:55;101347.66;;;10.06;100.00
78407;BME280;67692;51.074;-1.790;2023-11-21T04:48:21;101347.41;;;10.10;100.00
78407;BME280;67692;51.074;-1.790;2023-11-21T04:50:48;101347.50;;;10.09;100.00
78407;BME280;67692;51.074;-1.790;2023-11-21T04:53:15;101358.44;;;10.14;100.00
78407;BME280;67692;51.074;-1.790;2023-11-21T04:55:41;101354.31;;;10.10;100.00
78407;BME280;67692;51.074;-1.790;2023-11-21T04:58:09;101365.28;;;10.15;100.00
78407;BME280;67692;51.074;-1.790;2023-11-21T05:00:37;101370.28;;;10.18;100.00
78407;BME280;67692;51.074;-1.790;2023-11-21T05:03:04;101373.97;;;10.14;100.00
78407;BME280;67692;51.074;-1.790;2023-11-21T05:05:32;101375.94;;;10.09;100.00
78407;BME280;67692;51.074;-1.790;2023-11-21T05:07:59;101386.31;;;10.09;100.00
78407;BME280;67692;51.074;-1.790;2023-11-21T05:10:26;101393.75;;;10.15;100.00
78407;BME280;67692;51.074;-1.790;2023-11-21T05:12:52;101393.66;;;10.17;100.00
78407;BME280;67692;51.074;-1.790;2023-11-21T05:15:21;101390.16;;;10.18;100.00
78407;BME280;67692;51.074;-1.790;2023-11-21T05:17:48;101391.38;;;10.10;100.00
78407;BME280;67692;51.074;-1.790;2023-11-21T05:20:17;101405.16;;;10.11;100.00
78407;BME280;67692;51.074;-1.790;2023-11-21T05:22:46;101409.41;;;10.12;100.00
78407;BME280;67692;51.074;-1.790;2023-11-21T05:25:13;101412.00;;;10.12;100.00
78407;BME280;67692;51.074;-1.790;2023-11-21T05:27:40;101417.13;;;10.13;100.00
78407;BME280;67692;51.074;-1.790;2023-11-21T05:30:07;101425.88;;;10.11;100.00
78407;BME280;67692;51.074;-1.790;2023-11-21T05:32:38;101428.81;;;10.05;100.00
78407;BME280;67692;51.074;-1.790;2023-11-21T05:35:05;101434.06;;;10.03;100.00
78407;BME280;67692;51.074;-1.790;2023-11-21T05:37:37;101441.75;;;10.05;100.00
78407;BME280;67692;51.074;-1.790;2023-11-21T05:40:05;101438.22;;;10.06;100.00
78407;BME280;67692;51.074;-1.790;2023-11-21T05:42:32;101443.06;;;10.12;100.00
78407;BME280;67692;51.074;-1.790;2023-11-21T05:44:58;101449.31;;;10.08;100.00
78407;BME280;67692;51.074;-1.790;2023-11-21T05:47:36;101459.69;;;10.08;100.00
78407;BME280;67692;51.074;-1.790;2023-11-21T05:50:05;101458.00;;;10.07;100.00
78407;BME280;67692;51.074;-1.790;2023-11-21T05:52:35;101464.03;;;10.07;100.00
78407;BME280;67692;51.074;-1.790;2023-11-21T05:55:02;101470.03;;;10.08;100.00
78407;BME280;67692;51.074;-1.790;2023-11-21T05:57:30;101475.28;;;10.06;100.00
78407;BME280;67692;51.074;-1.790;2023-11-21T05:59:56;101473.38;;;10.10;100.00
78407;BME280;67692;51.074;-1.790;2023-11-21T06:02:23;101473.03;;;10.16;100.00
78407;BME280;67692;51.074;-1.790;2023-11-21T06:04:51;101481.56;;;10.02;100.00
78407;BME280;67692;51.074;-1.790;2023-11-21T06:07:19;101485.63;;;9.91;100.00
78407;BME280;67692;51.074;-1.790;2023-11-21T06:09:45;101488.22;;;9.91;100.00
78407;BME280;67692;51.074;-1.790;2023-11-21T06:12:13;101494.81;;;9.96;100.00
78407;BME280;67692;51.074;-1.790;2023-11-21T06:14:41;101501.97;;;9.91;100.00
78407;BME280;67692;51.074;-1.790;2023-11-21T06:17:07;101496.44;;;9.81;100.00
78407;BME280;67692;51.074;-1.790;2023-11-21T06:19:35;101522.38;;;9.64;100.00
78407;BME280;67692;51.074;-1.790;2023-11-21T06:22:01;101514.22;;;9.54;100.00
78407;BME280;67692;51.074;-1.790;2023-11-21T06:24:29;101514.19;;;9.39;100.00
78407;BME280;67692;51.074;-1.790;2023-11-21T06:26:55;101507.50;;;9.35;100.00
78407;BME280;67692;51.074;-1.790;2023-11-21T06:29:22;101514.66;;;9.30;100.00
78407;BME280;67692;51.074;-1.790;2023-11-21T06:31:49;101525.28;;;9.23;100.00
78407;BME280;67692;51.074;-1.790;2023-11-21T06:34:15;101525.63;;;9.17;100.00
78407;BME280;67692;51.074;-1.790;2023-11-21T06:36:42;101526.06;;;9.08;100.00
78407;BME280;67692;51.074;-1.790;2023-11-21T06:39:09;101528.03;;;9.03;100.00
78407;BME280;67692;51.074;-1.790;2023-11-21T06:41:37;101527.13;;;9.04;100.00
78407;BME280;67692;51.074;-1.790;2023-11-21T06:44:04;101541.13;;;9.00;100.00
78407;BME280;67692;51.074;-1.790;2023-11-21T06:46:30;101531.06;;;8.94;100.00
78407;BME280;67692;51.074;-1.790;2023-11-21T06:48:57;101530.78;;;9.00;100.00
78407;BME280;67692;51.074;-1.790;2023-11-21T06:51:23;101536.69;;;9.02;100.00
78407;BME280;67692;51.074;-1.790;2023-11-21T06:53:50;101551.44;;;9.00;100.00
78407;BME280;67692;51.074;-1.790;2023-11-21T06:56:17;101551.44;;;9.00;100.00
78407;BME280;67692;51.074;-1.790;2023-11-21T06:58:45;101556.63;;;9.00;100.00
78407;BME280;67692;51.074;-1.790;2023-11-21T07:01:12;101560.94;;;9.00;100.00
78407;BME280;67692;51.074;-1.790;2023-11-21T07:03:40;101562.53;;;9.02;100.00
78407;BME280;67692;51.074;-1.790;2023-11-21T07:06:08;101571.56;;;9.11;100.00
78407;BME280;67692;51.074;-1.790;2023-11-21T07:08:34;101575.91;;;9.10;100.00
78407;BME280;67692;51.074;-1.790;2023-11-21T07:11:01;101604.28;;;9.12;100.00
78407;BME280;67692;51.074;-1.790;2023-11-21T07:13:28;101593.38;;;9.05;100.00
78407;BME280;67692;51.074;-1.790;2023-11-21T07:15:57;101603.63;;;9.07;100.00
78407;BME280;67692;51.074;-1.790;2023-11-21T07:18:24;101612.38;;;9.04;99.55
78407;BME280;67692;51.074;-1.790;2023-11-21T07:20:50;101621.72;;;9.07;98.67
78407;BME280;67692;51.074;-1.790;2023-11-21T07:23:17;101618.38;;;9.05;99.06
78407;BME280;67692;51.074;-1.790;2023-11-21T07:25:44;101625.00;;;9.10;98.64
78407;BME280;67692;51.074;-1.790;2023-11-21T07:28:10;101627.72;;;9.07;98.15
78407;BME280;67692;51.074;-1.790;2023-11-21T07:30:37;101637.06;;;9.10;97.00
78407;BME280;67692;51.074;-1.790;2023-11-21T07:33:05;101640.44;;;9.12;96.60
78407;BME280;67692;51.074;-1.790;2023-11-21T07:35:32;101637.03;;;9.11;96.46
78407;BME280;67692;51.074;-1.790;2023-11-21T07:37:59;101642.25;;;9.10;96.34
78407;BME280;67692;51.074;-1.790;2023-11-21T07:40:26;101648.41;;;9.07;94.85
78407;BME280;67692;51.074;-1.790;2023-11-21T07:42:53;101647.03;;;9.00;95.17
78407;BME280;67692;51.074;-1.790;2023-11-21T07:45:22;101658.03;;;9.04;96.81
78407;BME280;67692;51.074;-1.790;2023-11-21T07:47:49;101668.91;;;9.10;94.54
78407;BME280;67692;51.074;-1.790;2023-11-21T07:50:17;101663.56;;;9.15;94.28
78407;BME280;67692;51.074;-1.790;2023-11-21T07:52:44;101672.22;;;9.14;94.44
78407;BME280;67692;51.074;-1.790;2023-11-21T07:55:10;101673.97;;;9.13;95.35
78407;BME280;67692;51.074;-1.790;2023-11-21T07:57:37;101672.28;;;9.12;93.63
78407;BME280;67692;51.074;-1.790;2023-11-21T08:00:05;101676.41;;;9.16;93.70
78407;BME280;67692;51.074;-1.790;2023-11-21T08:02:34;101671.84;;;9.21;93.32
78407;BME280;67692;51.074;-1.790;2023-11-21T08:05:01;101675.06;;;9.27;93.10
78407;BME280;67692;51.074;-1.790;2023-11-21T08:07:29;101682.66;;;9.30;94.34
78407;BME280;67692;51.074;-1.790;2023-11-21T08:09:56;101686.59;;;9.19;92.98
78407;BME280;67692;51.074;-1.790;2023-11-21T08:12:23;101697.53;;;9.24;93.32
78407;BME280;67692;51.074;-1.790;2023-11-21T08:14:51;101690.56;;;9.27;93.41
78407;BME280;67692;51.074;-1.790;2023-11-21T08:17:17;101694.41;;;9.18;93.81
78407;BME280;67692;51.074;-1.790;2023-11-21T08:19:45;101699.34;;;9.22;94.74
78407;BME280;67692;51.074;-1.790;2023-11-21T08:22:14;101706.06;;;9.27;94.53
78407;BME280;67692;51.074;-1.790;2023-11-21T08:24:43;101705.28;;;9.24;93.97
78407;BME280;67692;51.074;-1.790;2023-11-21T08:27:10;101708.84;;;9.22;94.54
78407;BME280;67692;51.074;-1.790;2023-11-21T08:29:36;101709.53;;;9.25;94.85
78407;BME280;67692;51.074;-1.790;2023-11-21T08:32:03;101719.25;;;9.20;94.43
78407;BME280;67692;51.074;-1.790;2023-11-21T08:34:30;101715.16;;;9.16;95.57
78407;BME280;67692;51.074;-1.790;2023-11-21T08:36:57;101721.16;;;9.17;95.63
78407;BME280;67692;51.074;-1.790;2023-11-21T08:39:24;101718.50;;;9.18;95.48
78407;BME280;67692;51.074;-1.790;2023-11-21T08:41:53;101720.78;;;9.24;96.11
78407;BME280;67692;51.074;-1.790;2023-11-21T08:44:19;101733.84;;;9.21;95.59
78407;BME280;67692;51.074;-1.790;2023-11-21T08:46:46;101735.81;;;9.16;96.66
78407;BME280;67692;51.074;-1.790;2023-11-21T08:49:13;101738.19;;;9.21;96.53
78407;BME280;67692;51.074;-1.790;2023-11-21T08:51:40;101735.38;;;9.25;96.24
78407;BME280;67692;51.074;-1.790;2023-11-21T08:54:07;101744.84;;;9.27;96.23
78407;BME280;67692;51.074;-1.790;2023-11-21T08:56:34;101752.84;;;9.20;96.65
78407;BME280;67692;51.074;-1.790;2023-11-21T08:59:02;101758.59;;;9.27;96.74
78407;BME280;67692;51.074;-1.790;2023-11-21T09:01:28;101754.25;;;9.28;97.13
78407;BME280;67692;51.074;-1.790;2023-11-21T09:03:56;101760.97;;;9.32;96.50
78407;BME280;67692;51.074;-1.790;2023-11-21T09:06:23;101764.31;;;9.34;96.84
78407;BME280;67692;51.074;-1.790;2023-11-21T09:08:50;101760.66;;;9.38;96.41
78407;BME280;67692;51.074;-1.790;2023-11-21T09:11:16;101755.03;;;9.30;96.93
78407;BME280;67692;51.074;-1.790;2023-11-21T09:13:44;101767.94;;;9.30;96.89
78407;BME280;67692;51.074;-1.790;2023-11-21T09:16:13;101768.50;;;9.17;97.11
78407;BME280;67692;51.074;-1.790;2023-11-21T09:18:40;101768.34;;;9.20;97.80
78407;BME280;67692;51.074;-1.790;2023-11-21T09:21:07;101776.81;;;9.24;98.09
78407;BME280;67692;51.074;-1.790;2023-11-21T09:23:33;101772.53;;;9.23;97.64
78407;BME280;67692;51.074;-1.790;2023-11-21T09:26:00;101770.59;;;9.28;97.06
78407;BME280;67692;51.074;-1.790;2023-11-21T09:28:27;101783.72;;;9.23;96.81
78407;BME280;67692;51.074;-1.790;2023-11-21T09:30:53;101783.59;;;9.27;97.15
78407;BME280;67692;51.074;-1.790;2023-11-21T09:33:21;101793.66;;;9.33;97.48
78407;BME280;67692;51.074;-1.790;2023-11-21T09:35:50;101805.50;;;9.37;96.66
78407;BME280;67692;51.074;-1.790;2023-11-21T09:38:18;101793.66;;;9.33;96.61
78407;BME280;67692;51.074;-1.790;2023-11-21T09:40:44;101808.03;;;9.38;97.27
78407;BME280;67692;51.074;-1.790;2023-11-21T09:43:15;101808.88;;;9.39;97.09
78407;BME280;67692;51.074;-1.790;2023-11-21T09:45:45;101816.50;;;9.42;96.98
78407;BME280;67692;51.074;-1.790;2023-11-21T09:48:12;101825.94;;;9.43;97.22
78407;BME280;67692;51.074;-1.790;2023-11-21T09:50:41;101826.00;;;9.41;96.73
78407;BME280;67692;51.074;-1.790;2023-11-21T09:53:13;101824.53;;;9.36;96.99
78407;BME280;67692;51.074;-1.790;2023-11-21T09:55:42;101825.28;;;9.38;97.69
78407;BME280;67692;51.074;-1.790;2023-11-21T09:58:10;101825.78;;;9.46;97.15
78407;BME280;67692;51.074;-1.790;2023-11-21T10:00:40;101831.09;;;9.43;96.84
78407;BME280;67692;51.074;-1.790;2023-11-21T10:03:07;101835.53;;;9.39;97.97
78407;BME280;67692;51.074;-1.790;2023-11-21T10:05:34;101841.38;;;9.44;98.75
78407;BME280;67692;51.074;-1.790;2023-11-21T10:08:03;101837.94;;;9.44;97.96
78407;BME280;67692;51.074;-1.790;2023-11-21T10:10:32;101839.63;;;9.45;98.58
78407;BME280;67692;51.074;-1.790;2023-11-21T10:13:01;101845.28;;;9.34;98.83
78407;BME280;67692;51.074;-1.790;2023-11-21T10:15:29;101842.75;;;9.33;99.93
78407;BME280;67692;51.074;-1.790;2023-11-21T10:17:56;101844.56;;;9.31;100.00
78407;BME280;67692;51.074;-1.790;2023-11-21T10:20:23;101840.78;;;9.38;100.00
78407;BME280;67692;51.074;-1.790;2023-11-21T10:22:50;101844.16;;;9.40;100.00
78407;BME280;67692;51.074;-1.790;2023-11-21T10:25:18;101849.97;;;9.45;99.36
78407;BME280;67692;51.074;-1.790;2023-11-21T10:27:48;101848.28;;;9.44;100.00
78407;BME280;67692;51.074;-1.790;2023-11-21T10:30:17;101856.19;;;9.41;99.95
78407;BME280;67692;51.074;-1.790;2023-11-21T10:32:44;101850.72;;;9.47;100.00
78407;BME280;67692;51.074;-1.790;2023-11-21T10:35:11;101854.22;;;9.46;100.00
78407;BME280;67692;51.074;-1.790;2023-11-21T10:37:38;101853.59;;;9.41;100.00
78407;BME280;67692;51.074;-1.790;2023-11-21T10:40:06;101852.69;;;9.42;100.00
78407;BME280;67692;51.074;-1.790;2023-11-21T10:42:35;101849.88;;;9.46;100.00
78407;BME280;67692;51.074;-1.790;2023-11-21T10:45:03;101853.72;;;9.38;100.00
78407;BME280;67692;51.074;-1.790;2023-11-21T10:47:35;101850.09;;;9.42;100.00
78407;BME280;67692;51.074;-1.790;2023-11-21T10:50:04;101854.38;;;9.43;100.00
78407;BME280;67692;51.074;-1.790;2023-11-21T10:52:30;101856.38;;;9.36;100.00
78407;BME280;67692;51.074;-1.790;2023-11-21T10:54:58;101856.13;;;9.42;100.00
78407;BME280;67692;51.074;-1.790;2023-11-21T10:57:29;101862.75;;;9.48;100.00
78407;BME280;67692;51.074;-1.790;2023-11-21T10:59:58;101873.69;;;9.34;100.00
78407;BME280;67692;51.074;-1.790;2023-11-21T11:02:25;101863.56;;;9.30;100.00
78407;BME280;67692;51.074;-1.790;2023-11-21T11:04:54;101864.59;;;9.25;100.00
78407;BME280;67692;51.074;-1.790;2023-11-21T11:07:25;101863.66;;;9.28;100.00
78407;BME280;67692;51.074;-1.790;2023-11-21T11:09:53;101867.97;;;9.28;100.00
78407;BME280;67692;51.074;-1.790;2023-11-21T11:12:20;101871.47;;;9.27;100.00
78407;BME280;67692;51.074;-1.790;2023-11-21T11:14:47;101867.41;;;9.21;100.00
78407;BME280;67692;51.074;-1.790;2023-11-21T11:17:16;101874.69;;;9.32;100.00
78407;BME280;67692;51.074;-1.790;2023-11-21T11:19:45;101868.59;;;9.33;100.00
78407;BME280;67692;51.074;-1.790;2023-11-21T11:22:25;101856.75;;;9.29;100.00
78407;BME280;67692;51.074;-1.790;2023-11-21T11:25:11;101855.69;;;9.33;100.00
78407;BME280;67692;51.074;-1.790;2023-11-21T11:27:48;101859.19;;;9.32;100.00
78407;BME280;67692;51.074;-1.790;2023-11-21T11:30:28;101857.50;;;9.31;100.00
78407;BME280;67692;51.074;-1.790;2023-11-21T11:33:10;101863.22;;;9.37;100.00
78407;BME280;67692;51.074;-1.790;2023-11-21T11:35:47;101869.44;;;9.33;100.00
78407;BME280;67692;51.074;-1.790;2023-11-21T11:38:21;101869.50;;;9.32;100.00
78407;BME280;67692;51.074;-1.790;2023-11-21T11:40:52;101865.47;;;9.26;100.00
78407;BME280;67692;51.074;-1.790;2023-11-21T11:43:25;101867.69;;;9.34;100.00
78407;BME280;67692;51.074;-1.790;2023-11-21T11:45:53;101877.28;;;9.32;100.00
78407;BME280;67692;51.074;-1.790;2023-11-21T11:48:23;101877.47;;;9.27;100.00
78407;BME280;67692;51.074;-1.790;2023-11-21T11:51:03;101882.50;;;9.30;100.00
78407;BME280;67692;51.074;-1.790;2023-11-21T11:53:35;101876.75;;;9.23;100.00
78407;BME280;67692;51.074;-1.790;2023-11-21T11:56:25;101872.34;;;9.25;100.00
78407;BME280;67692;51.074;-1.790;2023-11-21T11:58:52;101882.69;;;9.25;100.00
78407;BME280;67692;51.074;-1.790;2023-11-21T12:01:20;101877.34;;;9.30;100.00
78407;BME280;67692;51.074;-1.790;2023-11-21T12:06:51;101874.13;;;9.44;100.00
78407;BME280;67692;51.074;-1.790;2023-11-21T12:09:18;101880.69;;;9.51;100.00
78407;BME280;67692;51.074;-1.790;2023-11-21T12:11:46;101885.59;;;9.57;100.00
78407;BME280;67692;51.074;-1.790;2023-11-21T12:14:13;101892.09;;;9.66;100.00
78407;BME280;67692;51.074;-1.790;2023-11-21T12:16:40;101895.44;;;9.68;100.00
78407;BME280;67692;51.074;-1.790;2023-11-21T12:19:08;101889.66;;;9.63;100.00
78407;BME280;67692;51.074;-1.790;2023-11-21T12:21:36;101899.84;;;9.66;100.00
78407;BME280;67692;51.074;-1.790;2023-11-21T12:24:05;101893.06;;;9.63;100.00
78407;BME280;67692;51.074;-1.790;2023-11-21T12:26:34;101900.75;;;9.65;100.00
78407;BME280;67692;51.074;-1.790;2023-11-21T12:29:00;101894.81;;;9.63;100.00
78407;BME280;67692;51.074;-1.790;2023-11-21T12:31:29;101900.69;;;9.66;100.00
78407;BME280;67692;51.074;-1.790;2023-11-21T12:33:57;101895.50;;;9.66;100.00
78407;BME280;67692;51.074;-1.790;2023-11-21T12:36:24;101903.78;;;9.74;100.00
78407;BME280;67692;51.074;-1.790;2023-11-21T12:38:50;101906.13;;;9.79;100.00
78407;BME280;67692;51.074;-1.790;2023-11-21T12:41:18;101914.13;;;9.74;100.00
78407;BME280;67692;51.074;-1.790;2023-11-21T12:43:46;101917.75;;;9.70;100.00
78407;BME280;67692;51.074;-1.790;2023-11-21T12:46:13;101926.13;;;9.75;100.00